Time;durP1;ratioP1;P1;durP2;ratioP2;P2;SDS_P1;SDS_P2;PMS_P1;PMS_P2;Temp;Humidity;BMP_temperature;BMP_pressure;BME280_temperature;BME280_humidity;BME280_pressure;Samples;Min_cycle;Max_cycle;Signal;HPM_P1;HPM_P2
2022/01/03 00:02:48;;;;;;;13.82;6.75;;;23.80;50.70;;;;;;6163038;28;80505;-62
2022/01/03 00:05:58;;;;;;;10.45;6.22;;;23.80;50.60;;;;;;6161134;28;81498;-62
2022/01/03 00:08:58;;;;;;;10.90;6.00;;;23.70;50.50;;;;;;6168851;28;80907;-63
2022/01/03 00:11:59;;;;;;;9.13;6.03;;;23.70;50.40;;;;;;6171681;27;81687;-63
2022/01/03 00:14:59;;;;;;;8.30;5.45;;;23.80;50.50;;;;;;6170524;28;81481;-62
2022/01/03 00:18:00;;;;;;;10.57;5.80;;;23.70;50.50;;;;;;6170221;27;80201;-63
2022/01/03 00:21:00;;;;;;;8.18;5.70;;;23.70;50.20;;;;;;6170044;28;80632;-62
2022/01/03 00:24:01;;;;;;;8.18;5.38;;;23.70;50.20;;;;;;6169096;27;81842;-62
2022/01/03 00:27:01;;;;;;;8.88;5.22;;;23.70;50.20;;;;;;6172301;28;81184;-62
2022/01/03 00:30:02;;;;;;;8.82;5.35;;;23.70;50.10;;;;;;6203780;28;83148;-63
2022/01/03 00:33:02;;;;;;;7.90;4.82;;;23.70;50.50;;;;;;6199230;28;81986;-63
2022/01/03 00:36:03;;;;;;;8.52;4.93;;;23.80;50.50;;;;;;6172327;28;83165;-62
2022/01/03 00:39:03;;;;;;;8.85;5.22;;;23.70;50.20;;;;;;6162522;27;81774;-62
2022/01/03 00:42:04;;;;;;;7.82;4.90;;;23.70;50.20;;;;;;6163154;28;82318;-62
2022/01/03 00:45:04;;;;;;;8.10;5.05;;;23.70;50.20;;;;;;6159790;28;83492;-62
2022/01/03 00:48:05;;;;;;;7.95;5.03;;;23.70;50.10;;;;;;6144606;28;83037;-61
2022/01/03 00:51:05;;;;;;;8.95;5.38;;;23.70;50.10;;;;;;6159508;28;82053;-62
2022/01/03 00:54:06;;;;;;;7.90;4.93;;;23.70;50.10;;;;;;6162334;28;81359;-62
2022/01/03 00:57:06;;;;;;;6.47;4.57;;;23.70;50.10;;;;;;6162114;28;87150;-62
2022/01/03 01:00:08;;;;;;;6.90;4.55;;;23.70;50.10;;;;;;6160060;28;82238;-62
2022/01/03 01:03:15;;;;;;;6.57;4.38;;;23.70;49.90;;;;;;6163389;28;82034;-62
2022/01/03 01:06:15;;;;;;;8.00;4.75;;;23.60;50.00;;;;;;6160131;28;82570;-62
2022/01/03 01:09:16;;;;;;;7.05;4.20;;;23.70;50.20;;;;;;6197210;28;81149;-62
2022/01/03 01:12:16;;;;;;;6.20;4.90;;;23.60;49.90;;;;;;6161602;28;80406;-62
2022/01/03 01:15:17;;;;;;;6.25;3.80;;;23.60;50.10;;;;;;6196437;28;82790;-62
2022/01/03 01:18:18;;;;;;;8.63;4.55;;;23.60;50.00;;;;;;6161557;28;81868;-62
2022/01/03 01:21:23;;;;;;;9.00;4.28;;;23.60;50.10;;;;;;6177603;28;82783;-62
2022/01/03 01:24:33;;;;;;;6.17;4.07;;;23.60;49.90;;;;;;6205852;28;83175;-62
2022/01/03 01:27:48;;;;;;;5.40;3.70;;;23.60;49.50;;;;;;6161547;28;81862;-62
2022/01/03 01:30:49;;;;;;;6.53;3.80;;;23.60;49.50;;;;;;6207940;28;82096;-62
2022/01/03 01:33:50;;;;;;;5.22;3.90;;;23.60;49.40;;;;;;6166099;28;80240;-62
2022/01/03 01:36:51;;;;;;;6.88;4.05;;;23.60;49.30;;;;;;6210553;28;83567;-62
2022/01/03 01:39:52;;;;;;;7.47;4.30;;;23.60;50.10;;;;;;6149136;27;86200;-65
2022/01/03 01:42:52;;;;;;;5.47;3.38;;;23.60;49.30;;;;;;6176822;28;81564;-63
2022/01/03 01:45:53;;;;;;;4.70;3.50;;;23.60;49.30;;;;;;6158627;27;82840;-63
2022/01/03 01:48:54;;;;;;;7.03;3.95;;;23.60;49.30;;;;;;6169553;27;80423;-63
2022/01/03 01:51:57;;;;;;;5.43;3.58;;;23.60;49.20;;;;;;6198408;27;83721;-62
2022/01/03 01:54:58;;;;;;;4.93;3.38;;;23.60;49.40;;;;;;6191977;28;83122;-63
2022/01/03 01:58:01;;;;;;;5.85;4.00;;;23.60;49.20;;;;;;6161136;27;81951;-63
2022/01/03 02:01:10;;;;;;;4.90;3.25;;;23.60;49.10;;;;;;6193454;27;83406;-62
2022/01/03 02:04:15;;;;;;;4.38;3.25;;;23.60;49.20;;;;;;6203674;27;83333;-62
2022/01/03 02:07:15;;;;;;;5.63;3.78;;;23.60;49.30;;;;;;6208647;27;83187;-62
2022/01/03 02:10:16;;;;;;;4.80;3.35;;;23.60;49.20;;;;;;6189743;28;83156;-62
2022/01/03 02:13:22;;;;;;;4.30;3.47;;;23.60;49.10;;;;;;6197933;27;82789;-62
2022/01/03 02:16:23;;;;;;;6.10;3.47;;;23.60;49.80;;;;;;6201265;28;83007;-62
2022/01/03 02:19:27;;;;;;;4.47;3.25;;;23.60;49.10;;;;;;6166137;27;81541;-62
2022/01/03 02:22:28;;;;;;;6.70;3.70;;;23.60;49.10;;;;;;6184488;28;83417;-62
2022/01/03 02:25:30;;;;;;;6.93;3.33;;;23.60;49.40;;;;;;6189721;28;82481;-62
2022/01/03 02:28:31;;;;;;;4.68;3.55;;;23.60;49.80;;;;;;6160024;28;80758;-62
2022/01/03 02:31:33;;;;;;;4.28;3.30;;;23.60;49.70;;;;;;6167920;27;83289;-62
2022/01/03 02:34:33;;;;;;;5.93;3.25;;;23.60;49.80;;;;;;6176817;27;80677;-62
2022/01/03 02:37:34;;;;;;;3.50;2.50;;;23.60;49.80;;;;;;6208746;28;83354;-62
2022/01/03 02:40:34;;;;;;;5.30;3.17;;;23.60;50.00;;;;;;6204978;27;82943;-63
2022/01/03 02:43:35;;;;;;;3.88;3.13;;;23.60;50.00;;;;;;6165139;28;80558;-62
2022/01/03 02:46:35;;;;;;;5.40;3.58;;;23.60;50.00;;;;;;6170208;27;83491;-62
2022/01/03 02:49:37;;;;;;;4.63;3.50;;;23.60;50.20;;;;;;6195303;28;82535;-62
2022/01/03 02:52:37;;;;;;;5.35;3.17;;;23.60;50.00;;;;;;6171251;28;83350;-62
2022/01/03 02:55:38;;;;;;;4.18;3.42;;;23.60;50.00;;;;;;6196040;28;82065;-62
2022/01/03 02:58:39;;;;;;;4.38;3.20;;;23.60;50.00;;;;;;6168081;27;82787;-62
2022/01/03 03:01:39;;;;;;;4.95;3.30;;;23.60;50.00;;;;;;6172411;27;81826;-62
2022/01/03 03:04:40;;;;;;;4.30;3.10;;;23.60;50.10;;;;;;6164599;28;80836;-61
2022/01/03 03:07:40;;;;;;;4.85;3.00;;;23.60;50.20;;;;;;6159144;28;83374;-65
2022/01/03 03:10:41;;;;;;;4.53;2.83;;;23.60;50.60;;;;;;6171965;27;82571;-62
2022/01/03 03:13:42;;;;;;;6.75;3.45;;;23.60;50.30;;;;;;6175086;27;81286;-62
2022/01/03 03:16:44;;;;;;;4.38;3.10;;;23.60;50.50;;;;;;6159843;28;83617;-62
2022/01/03 03:19:45;;;;;;;4.15;3.05;;;23.60;49.50;;;;;;6155963;28;83479;-62
2022/01/03 03:22:49;;;;;;;4.35;3.03;;;23.60;48.80;;;;;;6159603;28;80437;-63
2022/01/03 03:25:50;;;;;;;3.72;2.45;;;23.60;48.60;;;;;;6151747;28;83360;-62
2022/01/03 03:28:50;;;;;;;6.85;2.95;;;23.60;48.50;;;;;;6179315;27;80130;-62
2022/01/03 03:31:51;;;;;;;3.15;2.50;;;23.60;48.60;;;;;;6178315;28;80553;-62
2022/01/03 03:34:51;;;;;;;3.83;2.50;;;23.60;48.80;;;;;;6172251;28;83098;-62
2022/01/03 03:37:52;;;;;;;3.55;2.65;;;23.60;48.60;;;;;;6167682;28;80807;-62
2022/01/03 03:40:52;;;;;;;3.40;2.63;;;23.60;48.50;;;;;;6168346;28;83551;-63
2022/01/03 03:43:53;;;;;;;4.60;2.97;;;23.60;48.10;;;;;;6193276;28;83178;-62
2022/01/03 03:46:54;;;;;;;5.28;3.38;;;23.60;48.00;;;;;;6212049;27;81988;-62
2022/01/03 03:49:54;;;;;;;3.30;2.50;;;23.70;47.90;;;;;;6168111;28;81228;-63
2022/01/03 03:52:55;;;;;;;2.72;2.20;;;23.70;47.50;;;;;;6160453;28;83516;-62
2022/01/03 03:55:56;;;;;;;4.25;2.67;;;23.70;47.30;;;;;;6160339;28;83143;-63
2022/01/03 03:58:59;;;;;;;3.60;2.92;;;23.70;47.20;;;;;;6162165;28;83244;-62
2022/01/03 04:02:00;;;;;;;3.67;2.42;;;23.70;47.10;;;;;;6149743;28;82689;-62
2022/01/03 04:05:01;;;;;;;4.28;3.00;;;23.70;46.90;;;;;;6161790;28;81975;-63
2022/01/03 04:08:03;;;;;;;3.05;2.42;;;23.70;46.80;;;;;;6166460;28;83718;-63
2022/01/03 04:11:04;;;;;;;4.50;2.33;;;23.80;46.70;;;;;;6173018;28;82896;-63
2022/01/03 04:14:06;;;;;;;3.80;2.75;;;23.80;46.60;;;;;;6178600;28;83284;-63
2022/01/03 04:17:07;;;;;;;4.53;2.60;;;23.80;46.70;;;;;;6156622;28;82578;-62
2022/01/03 04:20:07;;;;;;;3.25;2.40;;;23.80;46.50;;;;;;6161510;28;84982;-63
2022/01/03 04:23:08;;;;;;;2.97;2.50;;;23.80;46.50;;;;;;6160608;28;81275;-62
2022/01/03 04:26:08;;;;;;;2.65;2.17;;;23.80;46.30;;;;;;6164654;28;80952;-64
2022/01/03 04:29:10;;;;;;;3.80;2.30;;;23.80;46.20;;;;;;6171744;28;82517;-64
2022/01/03 04:32:11;;;;;;;2.90;2.05;;;23.80;46.00;;;;;;6168763;28;83284;-64
2022/01/03 04:35:12;;;;;;;4.28;2.70;;;23.90;46.10;;;;;;6164170;27;81640;-64
2022/01/03 04:38:12;;;;;;;3.15;2.33;;;23.90;46.10;;;;;;6187157;28;82166;-65
2022/01/03 04:41:13;;;;;;;2.97;2.17;;;23.90;46.20;;;;;;6163210;28;81653;-64
2022/01/03 04:44:14;;;;;;;3.40;2.15;;;23.90;46.00;;;;;;6164826;28;81329;-64
2022/01/03 04:47:14;;;;;;;5.93;2.22;;;23.80;46.20;;;;;;6172081;28;83126;-64
2022/01/03 04:50:15;;;;;;;2.72;2.20;;;23.80;46.30;;;;;;6174546;28;81741;-64
2022/01/03 04:53:16;;;;;;;3.10;2.45;;;23.90;46.40;;;;;;6190312;28;82858;-63
2022/01/03 04:56:17;;;;;;;4.45;2.20;;;23.90;46.60;;;;;;6195532;28;82127;-63
2022/01/03 04:59:19;;;;;;;3.30;2.28;;;23.90;46.80;;;;;;6171706;28;83105;-63
2022/01/03 05:02:20;;;;;;;3.42;2.17;;;23.90;47.20;;;;;;6167163;28;83282;-64
2022/01/03 05:05:22;;;;;;;2.92;2.20;;;23.90;47.60;;;;;;6165685;28;83020;-63
2022/01/03 05:08:22;;;;;;;5.60;2.28;;;23.90;47.60;;;;;;6194221;28;83061;-63
2022/01/03 05:11:23;;;;;;;3.53;2.03;;;23.90;47.90;;;;;;6171336;28;81354;-63
2022/01/03 05:14:23;;;;;;;3.90;2.30;;;23.90;47.80;;;;;;6164409;28;83615;-70
2022/01/03 05:17:25;;;;;;;3.80;1.80;;;23.90;47.80;;;;;;6159204;28;82702;-63
2022/01/03 05:20:25;;;;;;;3.78;2.20;;;23.90;47.90;;;;;;6160046;28;82828;-63
2022/01/03 05:23:26;;;;;;;4.60;2.22;;;23.90;47.80;;;;;;6160551;28;80359;-63
2022/01/03 05:26:27;;;;;;;6.53;2.60;;;23.90;48.20;;;;;;6159395;28;83491;-62
2022/01/03 05:29:30;;;;;;;2.28;1.98;;;23.90;48.20;;;;;;6157801;28;82205;-68
2022/01/03 05:32:30;;;;;;;3.33;1.80;;;23.90;48.90;;;;;;6160474;28;80588;-67
2022/01/03 05:35:31;;;;;;;2.45;1.40;;;23.80;50.10;;;;;;6158187;28;82493;-67
2022/01/03 05:38:32;;;;;;;1.77;1.67;;;23.80;50.50;;;;;;6159058;28;83018;-68
2022/01/03 05:41:34;;;;;;;3.60;1.10;;;23.80;51.30;;;;;;6158617;28;82944;-68
2022/01/03 05:44:36;;;;;;;1.52;1.40;;;23.80;51.60;;;;;;6159711;28;80288;-67
2022/01/03 05:47:39;;;;;;;1.45;1.30;;;23.80;52.20;;;;;;6159068;28;83302;-65
2022/01/03 05:50:40;;;;;;;2.75;2.35;;;23.70;53.40;;;;;;6189296;28;82197;-67
2022/01/03 05:53:41;;;;;;;14.77;7.45;;;23.80;54.00;;;;;;6158873;28;83369;-67
2022/01/03 05:56:42;;;;;;;13.70;7.72;;;23.80;53.90;;;;;;6157793;28;83413;-67
2022/01/03 05:59:42;;;;;;;12.05;6.45;;;23.80;53.10;;;;;;6149002;28;83140;-69
2022/01/03 06:02:43;;;;;;;8.70;5.47;;;23.80;52.40;;;;;;6157230;28;81346;-67
2022/01/03 06:08:55;;;;;;;6.13;3.83;;;23.70;50.80;;;;;;6159411;28;83800;-68
2022/01/03 06:11:56;;;;;;;3.67;3.03;;;23.70;50.30;;;;;;6151893;28;81749;-68
2022/01/03 06:14:56;;;;;;;5.40;3.05;;;23.60;49.90;;;;;;6156902;28;82297;-66
2022/01/03 06:17:58;;;;;;;4.13;2.70;;;23.60;49.80;;;;;;6155306;28;82285;-67
2022/01/03 06:20:59;;;;;;;5.72;3.20;;;23.60;50.30;;;;;;6154414;28;83788;-67
2022/01/03 06:24:05;;;;;;;5.40;3.33;;;23.60;51.00;;;;;;6173126;28;83495;-66
2022/01/03 06:27:06;;;;;;;3.85;2.92;;;23.60;52.00;;;;;;6164543;28;83262;-62
2022/01/03 06:30:06;;;;;;;15.25;3.70;;;23.60;52.90;;;;;;6156431;28;83187;-67
2022/01/03 06:33:08;;;;;;;9.00;4.10;;;23.60;52.80;;;;;;6157723;28;81605;-67
2022/01/03 06:36:09;;;;;;;13.57;5.97;;;23.70;53.20;;;;;;6157090;28;82035;-67
2022/01/03 06:39:12;;;;;;;11.30;5.15;;;23.70;53.20;;;;;;6157753;28;81412;-67
2022/01/03 06:42:12;;;;;;;6.35;4.30;;;23.70;53.10;;;;;;6159463;28;83425;-66
2022/01/03 06:45:13;;;;;;;10.55;5.63;;;23.70;53.50;;;;;;6189784;28;81817;-66
2022/01/03 06:48:16;;;;;;;10.38;4.82;;;23.70;53.20;;;;;;6157814;28;82481;-67
2022/01/03 06:51:16;;;;;;;9.40;5.57;;;23.70;54.10;;;;;;6156854;28;83040;-68
2022/01/03 06:54:17;;;;;;;7.45;4.15;;;23.70;54.40;;;;;;6158462;28;82876;-67
2022/01/03 06:57:23;;;;;;;10.07;5.00;;;23.70;54.60;;;;;;6157485;28;83193;-66
2022/01/03 07:00:24;;;;;;;8.85;4.60;;;23.70;54.50;;;;;;6156365;28;83630;-67
2022/01/03 07:03:26;;;;;;;7.88;4.18;;;23.70;54.10;;;;;;6161513;28;83053;-67
2022/01/03 07:06:26;;;;;;;10.35;4.30;;;23.70;53.80;;;;;;6163898;28;80445;-67
2022/01/03 07:09:27;;;;;;;7.78;4.78;;;23.70;53.10;;;;;;6161810;28;81762;-68
2022/01/03 07:12:27;;;;;;;8.18;4.60;;;23.70;52.90;;;;;;6163753;28;80934;-68
2022/01/03 07:18:56;;;;;;;8.80;4.90;;;23.80;52.20;;;;;;6163689;28;80552;-70
2022/01/03 07:21:58;;;;;;;6.53;3.90;;;23.80;52.00;;;;;;6163007;28;85191;-68
2022/01/03 07:24:59;;;;;;;9.10;4.03;;;23.80;51.70;;;;;;6162841;28;80566;-74
2022/01/03 07:27:59;;;;;;;7.03;3.15;;;23.80;51.50;;;;;;6163425;28;80309;-75
2022/01/03 07:31:00;;;;;;;9.52;4.30;;;23.80;51.40;;;;;;6155302;28;81065;-72
2022/01/03 07:34:01;;;;;;;7.22;3.28;;;23.80;50.90;;;;;;6158097;28;80901;-71
2022/01/03 07:37:01;;;;;;;8.05;3.70;;;23.80;50.90;;;;;;6163245;28;80557;-71
2022/01/03 07:40:02;;;;;;;6.85;3.65;;;23.80;50.60;;;;;;6163893;28;80863;-72
2022/01/03 07:43:03;;;;;;;7.85;3.00;;;23.70;50.50;;;;;;6163151;28;81190;-68
2022/01/03 07:46:04;;;;;;;8.32;3.65;;;23.70;50.10;;;;;;6159679;28;82255;-71
2022/01/03 07:49:04;;;;;;;10.35;3.13;;;23.70;50.30;;;;;;6158292;28;82213;-68
2022/01/03 07:52:04;;;;;;;6.95;2.92;;;23.80;50.10;;;;;;6190500;28;83585;-69
2022/01/03 07:55:06;;;;;;;10.35;3.60;;;23.80;50.10;;;;;;6161898;28;82388;-67
2022/01/03 07:58:07;;;;;;;6.65;2.85;;;23.80;49.80;;;;;;6164629;28;81102;-66
2022/01/03 08:01:07;;;;;;;8.63;3.40;;;23.70;49.30;;;;;;6164669;28;80570;-66
2022/01/03 08:04:08;;;;;;;6.97;3.28;;;23.60;48.60;;;;;;6166044;28;80948;-66
2022/01/03 08:07:08;;;;;;;7.95;3.55;;;23.50;48.30;;;;;;6155930;28;81477;-67
2022/01/03 08:10:09;;;;;;;13.80;5.38;;;23.50;48.00;;;;;;6151889;28;80543;-66
2022/01/03 08:13:09;;;;;;;8.73;4.35;;;23.40;47.80;;;;;;6171626;28;82167;-66
2022/01/03 08:19:54;;;;;;;11.63;3.58;;;23.30;47.60;;;;;;6167675;28;80871;-67
2022/01/03 08:22:55;;;;;;;11.52;3.35;;;23.30;47.30;;;;;;6178719;28;80744;-68
2022/01/03 08:25:55;;;;;;;5.65;3.13;;;23.20;47.80;;;;;;6170114;28;80448;-63
2022/01/03 08:28:56;;;;;;;5.50;3.10;;;23.20;47.80;;;;;;6207400;28;83771;-65
2022/01/03 08:31:56;;;;;;;7.70;3.15;;;23.20;47.30;;;;;;6167679;28;80492;-63
2022/01/03 08:34:57;;;;;;;4.97;2.28;;;23.10;46.70;;;;;;6161126;28;82928;-64
2022/01/03 08:37:58;;;;;;;6.10;2.78;;;23.10;46.20;;;;;;6159903;28;81857;-65
2022/01/03 08:40:58;;;;;;;5.07;2.80;;;23.10;45.90;;;;;;6177602;28;81892;-65
2022/01/03 08:43:59;;;;;;;9.02;2.70;;;23.00;45.70;;;;;;6156333;28;80709;-65
2022/01/03 08:46:59;;;;;;;4.88;2.47;;;23.00;45.40;;;;;;6163180;28;83637;-65
2022/01/03 08:50:00;;;;;;;11.02;3.28;;;23.00;45.50;;;;;;6152291;28;81614;-67
2022/01/03 08:53:01;;;;;;;89.72;40.78;;;23.00;45.90;;;;;;6159336;28;81696;-67
2022/01/03 08:56:01;;;;;;;156.10;74.28;;;23.00;47.10;;;;;;6163100;28;83583;-67
2022/01/03 08:59:03;;;;;;;216.15;103.53;;;23.10;47.60;;;;;;6171259;28;83215;-66
2022/01/03 09:02:03;;;;;;;196.95;96.82;;;23.00;47.50;;;;;;6159315;28;85486;-66
2022/01/03 09:05:04;;;;;;;161.52;78.75;;;23.00;47.30;;;;;;6157959;28;85605;-64
2022/01/03 09:08:04;;;;;;;129.77;60.47;;;23.00;47.20;;;;;;6156098;28;83142;-65
2022/01/03 09:11:05;;;;;;;104.22;50.55;;;23.00;46.90;;;;;;6141739;28;83554;-65
2022/01/03 09:14:05;;;;;;;102.90;46.80;;;23.00;46.50;;;;;;6161450;28;83963;-66
2022/01/03 09:17:06;;;;;;;143.45;72.30;;;23.00;46.80;;;;;;6157364;28;82778;-67
2022/01/03 09:20:06;;;;;;;188.73;90.32;;;23.00;46.50;;;;;;6158511;28;82932;-67
2022/01/03 09:23:17;;;;;;;152.93;73.82;;;23.00;46.70;;;;;;6159735;28;90350;-68
2022/01/03 09:29:37;;;;;;;88.68;43.00;;;23.10;45.70;;;;;;6157427;28;83450;-69
2022/01/03 09:32:38;;;;;;;76.95;38.35;;;23.30;45.40;;;;;;6163385;28;84016;-68
2022/01/03 09:35:38;;;;;;;74.85;35.38;;;23.40;45.10;;;;;;6158985;28;84248;-68
2022/01/03 09:38:39;;;;;;;58.85;30.17;;;23.40;45.40;;;;;;6166108;28;84216;-69
2022/01/03 09:41:39;;;;;;;53.83;25.70;;;23.40;45.50;;;;;;6161459;28;83360;-68
2022/01/03 09:44:40;;;;;;;49.90;23.83;;;23.40;45.50;;;;;;6156884;28;84250;-68
2022/01/03 09:47:42;;;;;;;39.83;19.85;;;23.40;45.70;;;;;;6163719;28;84139;-67
2022/01/03 09:50:42;;;;;;;29.08;14.77;;;23.40;45.20;;;;;;6156806;28;84484;-66
2022/01/03 09:53:43;;;;;;;31.85;15.88;;;23.50;44.50;;;;;;6164172;28;83099;-67
2022/01/03 09:56:44;;;;;;;24.45;12.25;;;23.60;44.10;;;;;;6168475;28;83235;-70
2022/01/03 09:59:44;;;;;;;22.85;10.77;;;23.70;43.60;;;;;;6161371;28;82931;-69
2022/01/03 10:02:45;;;;;;;15.40;8.25;;;23.80;43.10;;;;;;6167808;28;82978;-69
2022/01/03 10:05:45;;;;;;;14.13;6.70;;;23.90;42.40;;;;;;6158952;28;82771;-69
2022/01/03 10:08:46;;;;;;;14.93;8.07;;;23.90;42.30;;;;;;6168246;28;81105;-70
2022/01/03 10:11:46;;;;;;;12.13;7.15;;;23.90;42.50;;;;;;6170027;28;80727;-72
2022/01/03 10:14:47;;;;;;;14.73;6.90;;;23.90;42.70;;;;;;6167051;28;82159;-67
2022/01/03 10:17:47;;;;;;;10.18;5.50;;;24.00;42.70;;;;;;6163279;28;81046;-69
2022/01/03 10:20:48;;;;;;;13.07;5.68;;;24.10;42.90;;;;;;6161504;28;80258;-67
2022/01/03 10:23:48;;;;;;;5.20;3.80;;;24.30;42.30;;;;;;6163227;28;80991;-66
2022/01/03 10:26:49;;;;;;;9.27;4.10;;;24.40;41.30;;;;;;6169102;27;80491;-66
2022/01/03 10:29:50;;;;;;;5.90;3.67;;;24.50;41.00;;;;;;6162662;28;80412;-69
2022/01/03 10:32:51;;;;;;;5.05;3.15;;;24.40;40.60;;;;;;6151393;28;80653;-68
2022/01/03 10:35:52;;;;;;;6.20;3.58;;;24.30;41.00;;;;;;6159381;28;81029;-67
2022/01/03 10:38:53;;;;;;;8.30;3.60;;;24.30;41.30;;;;;;6160590;28;81583;-72
2022/01/03 10:41:53;;;;;;;6.25;3.17;;;24.20;41.90;;;;;;6158014;28;80654;-70
2022/01/03 10:44:54;;;;;;;7.50;3.35;;;24.10;41.90;;;;;;6155610;28;80384;-70
2022/01/03 10:47:54;;;;;;;6.90;3.08;;;24.20;42.30;;;;;;6154106;28;80682;-69
2022/01/03 10:50:55;;;;;;;5.78;3.30;;;24.30;42.20;;;;;;6158252;28;80920;-68
2022/01/03 10:53:56;;;;;;;3.97;2.55;;;24.30;43.00;;;;;;6158499;28;81369;-69
2022/01/03 10:56:56;;;;;;;5.18;3.30;;;24.30;42.00;;;;;;6156099;28;81087;-68
2022/01/03 10:59:57;;;;;;;4.10;2.85;;;24.20;42.40;;;;;;6163153;28;80723;-69
2022/01/03 11:02:58;;;;;;;4.57;2.50;;;24.20;42.30;;;;;;6157176;28;81027;-68
2022/01/03 11:06:07;;;;;;;6.70;2.85;;;24.10;42.40;;;;;;6158392;28;80801;-68
2022/01/03 11:12:27;;;;;;;7.47;2.55;;;24.10;43.40;;;;;;6157640;28;80644;-68
2022/01/03 11:15:28;;;;;;;5.35;2.70;;;24.00;43.50;;;;;;6154955;28;81558;-68
2022/01/03 11:18:28;;;;;;;4.50;2.55;;;24.00;43.30;;;;;;6156336;28;80986;-68
2022/01/03 11:21:30;;;;;;;7.32;3.10;;;24.00;44.30;;;;;;6159941;28;82345;-69
2022/01/03 11:24:30;;;;;;;6.18;2.78;;;23.90;45.20;;;;;;6166395;28;81360;-68
2022/01/03 11:27:31;;;;;;;17.58;5.00;;;23.90;45.90;;;;;;6160237;28;81531;-67
2022/01/03 11:30:32;;;;;;;23.77;7.35;;;23.80;46.70;;;;;;6159925;28;81068;-67
2022/01/03 11:33:32;;;;;;;21.83;7.38;;;23.70;47.20;;;;;;6163317;28;80774;-71
2022/01/03 11:36:33;;;;;;;24.35;6.97;;;23.60;48.10;;;;;;6160955;28;81604;-70
2022/01/03 11:39:36;;;;;;;16.70;4.95;;;23.60;47.80;;;;;;6169892;28;80883;-72
2022/01/03 11:42:36;;;;;;;14.95;4.57;;;23.60;47.70;;;;;;6157457;28;80000;-70
2022/01/03 11:45:37;;;;;;;12.07;3.92;;;23.70;46.80;;;;;;6158055;28;84327;-70
2022/01/03 11:48:37;;;;;;;11.70;4.25;;;24.00;45.70;;;;;;6156883;28;80737;-70
2022/01/03 11:51:38;;;;;;;11.52;3.67;;;24.30;45.50;;;;;;6151456;28;80949;-69
2022/01/03 11:54:38;;;;;;;7.82;3.60;;;24.40;44.60;;;;;;6161347;28;80448;-68
2022/01/03 11:57:45;;;;;;;8.90;2.85;;;24.50;44.20;;;;;;6174466;28;80347;-70
2022/01/03 12:04:05;;;;;;;7.75;2.95;;;24.70;43.10;;;;;;6158322;28;84803;-71
2022/01/03 12:07:06;;;;;;;6.85;2.83;;;24.70;43.00;;;;;;6155899;28;81459;-69
2022/01/03 12:10:06;;;;;;;8.18;3.70;;;24.70;42.00;;;;;;6160477;28;81366;-68
2022/01/03 12:13:07;;;;;;;6.07;3.17;;;24.90;42.30;;;;;;6164757;28;80285;-69
2022/01/03 12:16:07;;;;;;;7.85;3.20;;;24.90;41.40;;;;;;6175075;28;81381;-69
2022/01/03 12:19:10;;;;;;;5.15;2.63;;;25.00;41.00;;;;;;6161740;28;80440;-71
2022/01/03 12:22:11;;;;;;;4.60;2.72;;;25.00;40.40;;;;;;6166827;28;80509;-68
2022/01/03 12:25:12;;;;;;;13.38;2.92;;;25.10;40.70;;;;;;6158471;28;80463;-66
2022/01/03 12:28:15;;;;;;;6.65;2.47;;;25.10;40.00;;;;;;6171528;28;80734;-66
2022/01/03 12:31:15;;;;;;;4.93;2.70;;;25.10;39.90;;;;;;6163256;28;80942;-67
2022/01/03 12:34:16;;;;;;;4.03;2.47;;;25.10;39.90;;;;;;6169122;28;81468;-67
2022/01/03 12:37:16;;;;;;;7.35;2.65;;;25.10;39.30;;;;;;6152748;28;80425;-67
2022/01/03 12:40:18;;;;;;;5.15;3.05;;;25.10;39.80;;;;;;6152359;28;87803;-66
2022/01/03 12:43:18;;;;;;;4.30;2.53;;;25.20;39.40;;;;;;6164170;28;80368;-69
2022/01/03 12:46:19;;;;;;;5.00;2.67;;;25.30;38.80;;;;;;6166685;28;80450;-68
2022/01/03 12:49:19;;;;;;;6.53;2.65;;;25.30;38.40;;;;;;6167251;28;80474;-65
2022/01/03 12:52:21;;;;;;;6.28;2.80;;;25.20;38.00;;;;;;6156999;28;80529;-65
2022/01/03 12:55:21;;;;;;;8.45;3.22;;;25.20;37.90;;;;;;6152191;28;80519;-65
2022/01/03 12:58:22;;;;;;;4.68;2.60;;;25.10;38.40;;;;;;6158904;28;88354;-66
2022/01/03 13:01:25;;;;;;;5.03;2.60;;;25.10;38.40;;;;;;6159890;28;82611;-67
2022/01/03 13:04:25;;;;;;;9.13;2.90;;;25.00;38.60;;;;;;6162895;28;80310;-67
2022/01/03 13:07:26;;;;;;;5.80;2.90;;;24.90;38.90;;;;;;6161701;28;80652;-66
2022/01/03 13:10:26;;;;;;;4.90;2.70;;;24.80;39.40;;;;;;6163276;28;80781;-66
2022/01/03 13:13:28;;;;;;;4.85;2.60;;;24.80;39.60;;;;;;6159624;28;80666;-66
2022/01/03 13:16:28;;;;;;;4.75;3.00;;;24.70;39.80;;;;;;6165588;28;80524;-66
2022/01/03 13:19:29;;;;;;;5.88;2.92;;;24.60;39.40;;;;;;6195817;28;81378;-68
2022/01/03 13:22:32;;;;;;;5.68;3.17;;;24.40;39.60;;;;;;6159971;28;81057;-70
2022/01/03 13:25:32;;;;;;;7.40;3.05;;;24.30;39.60;;;;;;6158497;28;81950;-68
2022/01/03 13:28:33;;;;;;;5.20;2.60;;;24.20;40.00;;;;;;6159993;28;81084;-67
2022/01/03 13:31:33;;;;;;;10.82;3.63;;;24.20;40.30;;;;;;6150489;28;82441;-68
2022/01/03 13:34:34;;;;;;;7.50;3.63;;;24.10;40.70;;;;;;6157509;28;80839;-70
2022/01/03 13:37:34;;;;;;;9.02;3.17;;;24.00;40.80;;;;;;6148714;28;80057;-66
2022/01/03 13:40:35;;;;;;;8.30;3.85;;;24.00;41.00;;;;;;6156861;28;80524;-65
2022/01/03 13:43:39;;;;;;;6.57;3.40;;;23.90;41.10;;;;;;6159123;28;80211;-66
2022/01/03 13:49:59;;;;;;;8.23;3.50;;;23.80;41.40;;;;;;6161059;28;80608;-67
2022/01/03 13:52:59;;;;;;;9.25;3.22;;;23.80;41.70;;;;;;6154600;28;80896;-66
2022/01/03 13:56:00;;;;;;;7.35;3.42;;;23.70;41.40;;;;;;6160559;28;81307;-69
2022/01/03 13:59:00;;;;;;;6.28;2.97;;;23.70;42.20;;;;;;6161255;28;80139;-67
2022/01/03 14:02:02;;;;;;;6.20;2.72;;;23.60;41.90;;;;;;6151937;28;80553;-66
2022/01/03 14:05:03;;;;;;;5.43;2.80;;;23.60;42.20;;;;;;6153630;28;80526;-66
2022/01/03 14:08:03;;;;;;;6.80;3.20;;;23.60;42.10;;;;;;6140891;28;82598;-67
2022/01/03 14:11:04;;;;;;;6.80;3.55;;;23.50;42.50;;;;;;6158000;28;80438;-67
2022/01/03 14:14:04;;;;;;;5.25;3.38;;;23.50;42.00;;;;;;6166096;28;80228;-67
2022/01/03 14:17:06;;;;;;;5.72;3.17;;;23.50;42.20;;;;;;6156049;28;80644;-67
2022/01/03 14:20:07;;;;;;;6.22;3.47;;;23.40;42.20;;;;;;6160598;28;80467;-66
2022/01/03 14:23:07;;;;;;;6.95;3.15;;;23.40;42.30;;;;;;6158034;28;80894;-66
2022/01/03 14:26:08;;;;;;;6.10;3.53;;;23.40;42.30;;;;;;6153279;28;83140;-68
2022/01/03 14:29:10;;;;;;;5.60;3.20;;;23.30;42.10;;;;;;6154984;28;81341;-67
2022/01/03 14:32:11;;;;;;;5.40;3.33;;;23.20;42.30;;;;;;6157020;28;82018;-66
2022/01/03 14:35:11;;;;;;;7.30;3.63;;;23.20;41.80;;;;;;6158779;28;80579;-67
2022/01/03 14:38:12;;;;;;;6.63;3.97;;;23.20;42.10;;;;;;6167512;28;87438;-67
2022/01/03 14:41:13;;;;;;;5.55;2.95;;;23.10;42.00;;;;;;6163256;28;81424;-68
2022/01/03 14:44:13;;;;;;;7.20;2.95;;;23.10;42.10;;;;;;6160399;28;80812;-68
2022/01/03 14:47:14;;;;;;;6.18;3.40;;;23.10;41.80;;;;;;6171782;28;80785;-68
2022/01/03 14:50:14;;;;;;;5.45;2.85;;;23.10;42.30;;;;;;6162994;28;80211;-68
2022/01/03 14:53:15;;;;;;;6.15;3.00;;;23.00;42.00;;;;;;6153660;28;80552;-67
2022/01/03 14:56:15;;;;;;;10.65;2.75;;;23.00;41.70;;;;;;6157638;28;80436;-70
2022/01/03 14:59:16;;;;;;;8.07;3.40;;;23.00;41.80;;;;;;6158072;28;80321;-64
2022/01/03 15:02:16;;;;;;;8.85;3.33;;;22.90;41.40;;;;;;6161085;28;80269;-67
2022/01/03 15:05:17;;;;;;;6.93;3.33;;;22.90;41.60;;;;;;6157363;28;82691;-67
2022/01/03 15:08:17;;;;;;;5.78;3.60;;;23.00;42.20;;;;;;6158233;28;80506;-67
2022/01/03 15:11:18;;;;;;;7.13;3.15;;;23.00;42.10;;;;;;6161239;28;81066;-67
2022/01/03 15:14:18;;;;;;;6.82;3.50;;;23.20;42.30;;;;;;6158761;28;80709;-68
2022/01/03 15:17:19;;;;;;;8.65;3.42;;;23.20;42.50;;;;;;6158954;28;80313;-65
2022/01/03 15:20:19;;;;;;;11.40;3.60;;;23.30;42.70;;;;;;6157257;28;80777;-68
2022/01/03 15:23:20;;;;;;;7.85;4.10;;;23.40;42.70;;;;;;6155180;28;80553;-68
2022/01/03 15:26:20;;;;;;;7.88;4.20;;;23.40;42.80;;;;;;6156316;28;80409;-69
2022/01/03 15:29:21;;;;;;;9.55;3.90;;;23.40;43.00;;;;;;6161611;28;80707;-68
2022/01/03 15:32:21;;;;;;;6.07;3.20;;;23.40;43.30;;;;;;6165940;28;80473;-69
2022/01/03 15:35:22;;;;;;;6.28;3.03;;;23.50;43.20;;;;;;6162851;28;81863;-67
2022/01/03 15:38:22;;;;;;;6.15;3.70;;;23.60;43.30;;;;;;6160735;28;82042;-67
2022/01/03 15:41:23;;;;;;;9.38;3.83;;;23.60;43.30;;;;;;6170978;28;80619;-69
2022/01/03 15:44:25;;;;;;;5.93;3.50;;;23.70;43.30;;;;;;6161696;28;81854;-67
2022/01/03 15:47:26;;;;;;;7.35;3.85;;;23.70;43.20;;;;;;6163905;28;80397;-67
2022/01/03 15:50:26;;;;;;;9.73;3.42;;;23.70;43.30;;;;;;6168119;28;81220;-68
2022/01/03 15:53:28;;;;;;;6.55;3.55;;;23.70;44.10;;;;;;6164706;28;81850;-66
2022/01/03 15:56:28;;;;;;;8.48;3.70;;;23.80;44.10;;;;;;6164263;28;80512;-68
2022/01/03 15:59:29;;;;;;;4.25;3.20;;;23.80;44.20;;;;;;6164992;28;81580;-67
2022/01/03 16:02:29;;;;;;;9.27;3.45;;;23.90;44.10;;;;;;6164750;28;80564;-67